Latest Coastal Weather Observations for Cape Sorell

IDT60701

Issued at 8:05 pm EST Thursday 24 April 2014 (issued every 10 minutes, with the page automatically refreshed every 10 minutes)

About coastal observations | Map of coastal stations | Coastal observations for TAS | Marine services | Other Formats
Station Details ID: 097000 Name: CAPE SORELL Lat: -42.20 Lon: 145.17 Height: 19.3 m
Data from the previous 72 hours. | See also: Recent months at Cape Sorell
Date/Time
EST
Temp

°C
Wind Pressure Rain
since 9am
mm
Weather Cloud Vis
km
Sea
Height
m
Swell
Dir
 
Speed
knots
Gust
knots
hPa Trend Height
m
Period
s
Dir
24/08:00pm 10.7 W 11 15 1017.4 - 0.2 - - - - - - -
24/07:30pm 10.9 WSW 12 16 1017.3 - 0.2 - - - - - - -
24/07:00pm 10.9 WSW 13 17 1016.9 - 0.2 - - - - - - -
24/06:30pm 10.6 WSW 15 19 1016.5 - 0.2 - - - - - - -
24/06:00pm 10.1 WSW 15 21 1015.9 - 0.2 - - - - - - -
24/05:30pm 9.2 WSW 10 13 1015.8 - 0.2 - - - - - - -
24/05:17pm 9.4 WSW 18 30 1015.9 - 0.2 - - - - - - -
24/05:00pm 10.7 WSW 18 21 1015.3 - 0.2 - - - - - - -
24/04:30pm 11.0 WSW 19 24 1014.9 - 0.2 - - - - - - -
24/04:00pm 11.6 WSW 20 24 1014.4 - 0.2 - - - - - - -
24/03:30pm 11.6 WSW 18 23 1014.1 - 0.2 - - - - - - -
24/03:00pm 11.4 WSW 15 25 1013.7 - 0.2 - - - - - - -
24/02:30pm 11.4 WSW 19 23 1013.3 - 0.2 - - - - - - -
24/02:00pm 11.9 WSW 21 27 1012.9 - 0.2 - - - - - - -
24/01:30pm 11.9 WSW 21 26 1012.3 - 0.2 - - - - - - -
24/01:00pm 11.5 WSW 24 28 1011.9 - 0.2 - - - - - - -
24/12:30pm 11.0 WSW 25 31 1011.5 - 0.2 - - - - - - -
24/12:00pm 11.7 WSW 27 31 1010.9 - 0.2 - - - - - - -
24/11:30am 11.4 WSW 24 29 1010.4 - 0.2 - - - - - - -
24/11:00am 11.7 SW 26 32 1009.8 - 0.2 - - - - - - -
24/10:30am 11.6 WSW 28 35 1008.8 - 0.2 - - - - - - -
24/10:19am 11.2 WSW 25 37 1008.4 - 0.2 - - - - - - -
24/10:00am 10.9 WSW 22 26 1008.5 - 0.0 - - - - - - -
24/09:30am 9.9 WSW 29 36 1007.7 - 0.0 - - - - - - -
24/09:01am 9.6 WSW 33 40 1006.7 - 0.0 - - - - - - -
24/09:00am 9.2 WSW 20 38 1007.1 - 16.8 Recent precip. - - - - - -
24/08:36am 10.1 WSW 26 36 1006.8 - 16.4 - - - - - - -
24/08:30am 9.6 WSW 26 32 1006.6 - 16.4 - - - - - - -
24/08:19am 10.5 WSW 19 34 1006.2 - 16.4 - - - - - - -
24/08:00am 10.1 SW 25 29 1005.9 - 16.4 - - - - - - -
24/07:30am 9.1 SW 24 31 1005.4 - 16.4 - - - - - - -
24/07:28am 9.1 SW 25 31 1005.2 - 16.4 - - - - - - -
24/07:16am 10.3 WSW 39 42 1004.1 - 16.4 - - - - - - -
24/07:09am 10.9 WSW 28 43 1003.8 - 16.4 - - - - - - -
24/07:00am 11.0 WSW 26 32 1004.3 - 16.4 - - - - - - -
24/06:30am 11.1 WSW 25 30 1003.8 - 16.4 - - - - - - -
24/06:10am 10.6 WSW 29 40 1003.6 - 16.4 - - - - - - -
24/06:00am 11.0 WSW 30 37 1003.0 - 16.4 - - - - - - -
24/05:30am 11.3 WSW 29 35 1002.5 - 16.4 - - - - - - -
24/05:00am 11.7 WSW 26 32 1002.1 - 16.4 - - - - - - -
24/04:30am 11.9 WSW 27 34 1000.8 - 16.2 - - - - - - -
24/04:18am 11.9 W 21 28 1001.5 - 16.0 - - - - - - -
24/04:01am 11.3 WNW 16 27 1001.2 - 16.0 - - - - - - -
24/04:00am 11.2 NW 15 23 1001.2 - 16.0 - - - - - - -
24/03:51am 11.2 NW 11 14 1001.1 - 16.0 - - - - - - -
24/03:30am 10.4 W 21 32 1001.7 - 15.8 - - - - - - -
24/03:11am 11.1 W 21 37 1001.3 - 15.2 - - - - - - -
24/03:00am 11.3 W 17 27 1001.3 - 14.2 Rain - - - - - -
24/02:30am 11.2 WSW 28 40 1000.3 - 13.0 - - - - - - -
24/02:00am 12.2 WSW 23 34 1000.1 - 9.4 - - - - - - -
24/01:58am 14.4 NNW 14 21 1000.8 - 9.0 - - - - - - -
24/01:44am 14.8 N 27 37 999.7 - 8.0 - - - - - - -
24/01:30am 14.4 N 28 35 999.8 - 8.0 - - - - - - -
24/01:00am 14.5 N 29 37 1000.2 - 7.6 - - - - - - -
24/12:30am 14.0 N 30 37 1000.8 - 7.6 - - - - - - -
24/12:00am 13.7 N 29 35 1002.0 - 7.6 Recent precip. - - - - - -
 
Date/Time
EST
Temp

°C
Wind Pressure Rain
since 9am
mm
Weather Cloud Vis
km
Sea
Height
m
Swell
Dir
 
Speed
knots
Gust
knots
hPa Trend Height
m
Period
s
Dir
23/11:30pm 13.5 N 31 38 1002.7 - 7.6 - - - - - - -
23/11:08pm 13.4 N 26 36 1003.2 - 6.0 - - - - - - -
23/11:00pm 13.5 N 29 36 1003.1 - 4.6 - - - - - - -
23/10:36pm 13.5 N 29 40 1003.5 - 3.8 - - - - - - -
23/10:30pm 13.4 N 26 35 1003.7 - 3.4 - - - - - - -
23/10:00pm 13.7 N 27 35 1004.4 - 2.4 - - - - - - -
23/09:30pm 13.4 N 27 33 1005.2 - 2.4 - - - - - - -
23/09:00pm 14.2 N 27 32 1005.1 - 0.4 - - - - - - -
23/08:30pm 13.8 N 24 30 1005.8 - 0.4 - - - - - - -
23/08:00pm 14.3 N 22 27 1006.4 - 0.4 - - - - - - -
23/07:30pm 14.4 N 24 28 1006.6 - 0.2 - - - - - - -
23/07:00pm 14.2 N 24 30 1006.7 - 0.2 - - - - - - -
23/06:30pm 14.9 N 23 28 1007.2 - 0.2 - - - - - - -
23/06:00pm 14.9 N 23 28 1007.3 - 0.2 - - - - - - -
23/05:30pm 14.9 N 23 29 1007.5 - 0.2 - - - - - - -
23/05:00pm 15.1 N 22 28 1007.8 - 0.2 - - - - - - -
23/04:30pm 15.0 N 21 30 1008.2 - 0.2 - - - - - - -
23/04:00pm 15.1 N 19 26 1008.5 - 0.2 - - - - - - -
23/03:30pm 15.1 N 19 27 1008.6 - 0.2 - - - - - - -
23/03:00pm 15.5 NNW 20 26 1008.9 - 0.2 - - - - - - -
23/02:30pm 15.2 N 24 29 1008.9 - 0.2 - - - - - - -
23/02:00pm 15.5 N 20 26 1009.5 - 0.2 - - - - - - -
23/01:30pm 15.1 N 22 26 1009.9 - 0.2 - - - - - - -
23/01:00pm 14.9 N 23 28 1010.4 - 0.2 - - - - - - -
23/12:30pm 14.7 N 23 27 1010.9 - 0.2 - - - - - - -
23/12:00pm 14.7 N 21 26 1011.4 - 0.2 - - - - - - -
23/11:30am 14.3 N 18 24 1011.9 - 0.2 - - - - - - -
23/11:00am 14.0 N 18 22 1012.3 - 0.2 - - - - - - -
23/10:30am 13.7 N 15 20 1012.6 - 0.2 - - - - - - -
23/10:00am 14.1 N 18 22 1012.8 - 0.2 - - - - - - -
23/09:30am 13.1 NNE 15 18 1013.1 - 0.2 - - - - - - -
23/09:00am 12.7 N 18 20 1013.0 - 0.6 - - - - - - -
23/08:30am 12.3 NNE 16 21 1013.2 - 0.6 - - - - - - -
23/08:00am 11.8 NNE 14 16 1013.3 - 0.6 - - - - - - -
23/07:30am 11.6 NNE 14 17 1013.3 - 0.6 - - - - - - -
23/07:00am 12.3 NNE 14 18 1013.1 - 0.6 - - - - - - -
23/06:30am 13.6 N 12 16 1013.1 - 0.6 - - - - - - -
23/06:00am 13.2 N 8 11 1013.3 - 0.6 - - - - - - -
23/05:30am 12.4 NW 8 11 1013.6 - 0.6 - - - - - - -
23/05:00am 12.6 NNW 8 10 1013.7 - 0.6 - - - - - - -
23/04:30am 12.4 NW 11 16 1013.6 - 0.6 - - - - - - -
23/04:00am 11.9 W 9 12 1013.6 - 0.6 - - - - - - -
23/03:30am 11.9 WSW 13 16 1013.6 - 0.6 - - - - - - -
23/03:08am 12.5 W 20 28 1013.2 - 0.4 - - - - - - -
23/03:00am 12.8 NW 11 15 1013.6 - 0.4 - - - - - - -
23/02:30am 12.1 N 3 6 1013.7 - 0.4 - - - - - - -
23/02:00am 11.7 W 4 6 1014.1 - 0.4 - - - - - - -
23/01:30am 11.8 WSW 6 8 1014.1 - 0.4 - - - - - - -
23/01:00am 12.0 W 4 7 1014.1 - 0.4 - - - - - - -
23/12:30am 12.2 W 5 7 1014.2 - 0.4 - - - - - - -
23/12:00am 12.6 WNW 9 12 1014.3 - 0.2 - - - - - - -
 
Date/Time
EST
Temp

°C
Wind Pressure Rain
since 9am
mm
Weather Cloud Vis
km
Sea
Height
m
Swell
Dir
 
Speed
knots
Gust
knots
hPa Trend Height
m
Period
s
Dir
22/11:30pm 13.6 W 10 13 1014.3 - 0.2 - - - - - - -
22/11:00pm 13.4 W 9 14 1014.3 - 0.2 - - - - - - -
22/10:30pm 13.4 W 10 13 1014.3 - 0.2 - - - - - - -
22/10:00pm 13.5 W 10 13 1014.3 - 0.2 - - - - - - -
22/09:30pm 13.2 W 13 18 1014.2 - 0.2 - - - - - - -
22/09:00pm 12.9 WSW 15 17 1014.1 - 0.2 - - - - - - -
22/08:30pm 12.9 WSW 18 22 1013.8 - 0.2 - - - - - - -
22/08:00pm 13.6 WSW 17 21 1013.4 - 0.2 - - - - - - -
22/07:30pm 13.4 W 13 18 1013.4 - 0.2 - - - - - - -
22/07:00pm 13.5 W 12 18 1013.1 - 0.2 - - - - - - -
22/06:30pm 13.3 W 15 20 1012.7 - 0.2 - - - - - - -
22/06:00pm 13.1 WNW 16 20 1012.2 - 0.2 - - - - - - -
22/05:30pm 13.0 WNW 14 19 1012.0 - 0.2 - - - - - - -
22/05:00pm 12.9 WNW 17 20 1012.1 - 0.2 - - - - - - -
22/04:30pm 14.5 WNW 15 21 1011.7 - 0.0 - - - - - - -
22/04:00pm 15.3 NW 16 22 1011.6 - 0.0 - - - - - - -
22/03:30pm 15.5 NW 17 20 1011.6 - 0.0 - - - - - - -
22/03:00pm 15.6 NW 15 20 1011.4 - 0.0 - - - - - - -
22/02:30pm 16.3 WNW 14 20 1011.4 - 0.0 - - - - - - -
22/02:00pm 15.9 WNW 13 16 1011.2 - 0.0 - - - - - - -
22/01:30pm 16.2 WNW 13 18 1011.2 - 0.0 - - - - - - -
22/01:00pm 15.7 W 13 18 1011.1 - 0.0 - - - - - - -
22/12:30pm 14.8 WNW 15 20 1011.0 - 0.0 - - - - - - -
22/12:00pm 14.9 W 12 17 1011.0 - 0.0 - - - - - - -
22/11:30am 14.0 WSW 13 17 1010.9 - 0.0 - - - - - - -
22/11:00am 13.9 WSW 18 21 1010.4 - 0.0 - - - - - - -
22/10:30am 13.9 WSW 17 20 1010.1 - 0.0 - - - - - - -
22/10:00am 13.8 WSW 19 22 1009.7 - 0.0 - - - - - - -
22/09:30am 13.4 WSW 22 26 1009.3 - 0.0 - - - - - - -
22/09:00am 13.2 WSW 23 28 1008.8 - 4.0 Recent precip. - - - - - -
22/08:30am 12.5 WSW 24 29 1008.2 - 4.0 - - - - - - -
22/08:00am 13.7 WSW 25 29 1007.3 - 3.8 - - - - - - -
22/07:56am 14.4 WSW 24 29 1007.0 - 3.8 - - - - - - -
22/07:48am 14.5 NW 16 26 1007.5 - 3.8 - - - - - - -
22/07:30am 14.2 NW 16 23 1007.0 - 3.8 - - - - - - -
22/07:00am 14.6 NW 16 23 1006.4 - 3.8 - - - - - - -
22/06:30am 14.8 WNW 15 20 1006.3 - 3.8 - - - - - - -
22/06:00am 15.2 WNW 16 21 1006.1 - 3.6 - - - - - - -
22/05:30am 15.3 NW 13 17 1006.1 - 3.6 - - - - - - -
22/05:00am 15.1 WNW 14 20 1005.7 - 3.6 - - - - - - -
22/04:30am 15.5 WNW 16 20 1005.5 - 3.6 - - - - - - -
22/04:00am 15.5 WNW 18 22 1005.1 - 3.6 - - - - - - -
22/03:30am 15.7 WNW 19 22 1004.7 - 3.6 - - - - - - -
22/03:00am 16.0 NW 19 24 1004.4 - 3.6 - - - - - - -
22/02:46am 16.4 NW 15 25 1004.5 - 3.6 - - - - - - -
22/02:30am 16.5 NW 16 25 1004.4 - 3.6 - - - - - - -
22/02:00am 16.7 NNW 20 27 1004.2 - 3.6 - - - - - - -
22/01:30am 16.6 NNW 20 26 1003.9 - 3.6 - - - - - - -
22/01:26am 16.8 NNW 20 22 1004.0 - 3.6 - - - - - - -
22/01:00am 17.0 N 30 41 1003.5 - 3.4 - - - - - - -
22/12:49am 16.8 N 28 39 1003.5 - 3.4 - - - - - - -
22/12:30am 17.0 N 26 35 1003.7 - 3.4 - - - - - - -
22/12:00am 17.4 N 31 39 1003.3 - 3.2 - - - - - - -
 
Date/Time
EST
Temp

°C
Wind Pressure Rain
since 9am
mm
Weather Cloud Vis
km
Sea
Height
m
Swell
Dir
 
Speed
knots
Gust
knots
hPa Trend Height
m
Period
s
Dir
21/11:30pm 17.3 N 32 38 1003.0 - 3.2 - - - - - - -
21/11:00pm 17.3 N 31 43 1002.7 - 3.2 - - - - - - -
21/10:57pm 16.6 N 28 43 1002.9 - 3.2 - - - - - - -
21/10:30pm 15.8 NNE 28 33 1003.3 - 3.2 - - - - - - -
21/10:00pm 15.6 NNE 30 35 1003.8 - 3.2 - - - - - - -
21/09:30pm 15.5 NNE 32 39 1003.9 - 3.2 - - - - - - -
21/09:21pm 15.1 NNE 30 37 1004.1 - 3.2 - - - - - - -
21/09:06pm 14.1 NNE 17 27 1005.3 - 3.0 - - - - - - -
21/09:00pm 13.6 NE 12 19 1005.6 - 3.0 - - - - - - -
21/08:30pm 12.8 NE 12 17 1006.5 - 3.0 - - - - - - -

Other Formats:

Comma delimited format used in spreadsheet applications
http://www.bom.gov.au/fwo/IDT60701/IDT60701.94974.axf

JavaScript Object Notation format (JSON) in row-major order
http://www.bom.gov.au/fwo/IDT60701/IDT60701.94974.json